Time;durP1;ratioP1;P1;durP2;ratioP2;P2;SDS_P1;SDS_P2;PMS_P1;PMS_P2;Temp;Humidity;BMP_temperature;BMP_pressure;BME280_temperature;BME280_humidity;BME280_pressure;Samples;Min_cycle;Max_cycle;Signal;HPM_P1;HPM_P2
2021/06/14 00:00:34;;;;;;;;;;;25.40;99.90;;;;;;1903459;74;20262;-90
2021/06/14 00:03:04;;;;;;;;;;;25.40;99.90;;;;;;1905830;74;20170;-90
2021/06/14 00:05:35;;;;;;;;;;;25.40;99.90;;;;;;1910158;74;20151;-91
2021/06/14 00:08:06;;;;;;;;;;;25.40;99.90;;;;;;1907223;74;20140;-90
2021/06/14 00:10:36;;;;;;;;;;;25.50;99.90;;;;;;1901196;74;20165;-88
2021/06/14 00:13:07;;;;;;;;;;;25.50;99.90;;;;;;1897984;75;20246;-91
2021/06/14 00:15:37;;;;;;;;;;;25.50;99.90;;;;;;1891222;74;20247;-90
2021/06/14 00:18:07;;;;;;;;;;;25.60;99.90;;;;;;1905606;74;20190;-91
2021/06/14 00:20:38;;;;;;;;;;;25.60;99.90;;;;;;1900778;74;20163;-89
2021/06/14 00:23:10;;;;;;;;;;;25.60;99.90;;;;;;1906899;74;20185;-90
2021/06/14 00:25:40;;;;;;;;;;;25.60;99.90;;;;;;1872299;75;20152;-92
2021/06/14 00:28:10;;;;;;;;;;;25.70;99.90;;;;;;1862991;75;20550;-89
2021/06/14 00:30:43;;;;;;;;;;;25.80;99.90;;;;;;1881856;75;20208;-92
2021/06/14 00:33:14;;;;;;;;;;;25.70;99.90;;;;;;1868096;75;20217;-90
2021/06/14 00:35:45;;;;;;;;;;;25.80;99.90;;;;;;1885452;75;20204;-90
2021/06/14 00:38:15;;;;;;;;;;;25.80;99.90;;;;;;1882748;75;20555;-92
2021/06/14 00:40:45;;;;;;;;;;;25.90;99.90;;;;;;1884415;75;20251;-91
2021/06/14 00:43:15;;;;;;;;;;;25.90;99.90;;;;;;1858494;75;20505;-92
2021/06/14 00:45:47;;;;;;;;;;;25.90;99.90;;;;;;1885146;75;20187;-91
2021/06/14 00:48:17;;;;;;;;;;;25.90;99.90;;;;;;1870424;75;20197;-90
2021/06/14 00:50:47;;;;;;;;;;;26.00;99.90;;;;;;1859354;75;20193;-91
2021/06/14 00:53:18;;;;;;;;;;;26.00;99.90;;;;;;1880519;74;20200;-92
2021/06/14 00:55:48;;;;;;;;;;;26.00;99.90;;;;;;1881941;75;20441;-91
2021/06/14 00:58:19;;;;;;;;;;;26.10;99.90;;;;;;1873104;75;20230;-90
2021/06/14 01:00:48;;;;;;;;;;;26.20;99.90;;;;;;1887071;75;20466;-91
2021/06/14 01:03:18;;;;;;;;;;;26.20;99.90;;;;;;1887855;75;20176;-92
2021/06/14 01:05:50;;;;;;;;;;;26.20;99.90;;;;;;1861663;75;20203;-91
2021/06/14 01:08:20;;;;;;;;;;;26.20;99.90;;;;;;1868947;75;20133;-89
2021/06/14 01:10:50;;;;;;;;;;;26.20;99.90;;;;;;1865036;75;20191;-89
2021/06/14 01:13:19;;;;;;;;;;;26.30;99.90;;;;;;1863213;75;20213;-87
2021/06/14 01:15:50;;;;;;;;;;;26.30;99.90;;;;;;1862591;75;20392;-87
2021/06/14 01:18:21;;;;;;;;;;;26.30;99.90;;;;;;1817350;76;20396;-92
2021/06/14 01:20:52;;;;;;;;;;;26.30;99.90;;;;;;1818964;78;20225;-92
2021/06/14 01:23:24;;;;;;;;;;;26.40;99.90;;;;;;1828031;76;20196;-93
2021/06/14 01:25:55;;;;;;;;;;;26.40;99.90;;;;;;1914303;74;20206;-90
2021/06/14 01:28:26;;;;;;;;;;;26.40;99.90;;;;;;1903315;74;20187;-94
2021/06/14 01:30:56;;;;;;;;;;;26.40;99.90;;;;;;1914628;74;20179;-91
2021/06/14 01:33:28;;;;;;;;;;;26.50;99.90;;;;;;1913599;72;20151;-92
2021/06/14 01:36:07;;;;;;;;;;;26.60;99.90;;;;;;1898882;74;20147;-91
2021/06/14 01:38:37;;;;;;;;;;;26.60;99.90;;;;;;1881196;75;20202;-90
2021/06/14 01:41:07;;;;;;;;;;;26.70;99.90;;;;;;1868056;75;20114;-93
2021/06/14 01:43:40;;;;;;;;;;;26.70;99.90;;;;;;1876469;75;20099;-92
2021/06/14 01:46:29;;;;;;;;;;;26.80;99.90;;;;;;1881275;75;20130;-93
2021/06/14 01:49:00;;;;;;;;;;;26.90;99.90;;;;;;1877410;75;20197;-93
2021/06/14 01:51:37;;;;;;;;;;;26.90;99.90;;;;;;1860903;75;20178;-91
2021/06/14 01:54:06;;;;;;;;;;;27.00;99.90;;;;;;1858699;76;20162;-93
2021/06/14 01:56:40;;;;;;;;;;;27.10;99.90;;;;;;1862949;76;20170;-90
2021/06/14 01:59:11;;;;;;;;;;;27.20;99.90;;;;;;1890271;74;20191;-77
2021/06/14 02:01:43;;;;;;;;;;;27.20;99.90;;;;;;1900528;74;20211;-78
2021/06/14 02:04:17;;;;;;;;;;;27.30;99.90;;;;;;1851005;75;20242;-77
2021/06/14 02:06:53;;;;;;;;;;;27.30;99.90;;;;;;1911625;73;20194;-79
2021/06/14 02:09:20;;;;;;;;;;;27.30;99.90;;;;;;1907690;74;20569;-78
2021/06/14 02:11:56;;;;;;;;;;;27.40;99.90;;;;;;1910384;74;20206;-78
2021/06/14 02:14:28;;;;;;;;;;;27.40;99.90;;;;;;1910167;74;20717;-77
2021/06/14 02:17:00;;;;;;;;;;;27.40;99.90;;;;;;1904828;74;20424;-78
2021/06/14 02:19:34;;;;;;;;;;;27.50;99.90;;;;;;1905348;74;20260;-76
2021/06/14 02:22:06;;;;;;;;;;;27.50;99.90;;;;;;1893876;74;20212;-77
2021/06/14 02:24:44;;;;;;;;;;;27.50;99.90;;;;;;1904058;74;20165;-76
2021/06/14 02:27:15;;;;;;;;;;;27.50;99.90;;;;;;1914452;73;20115;-78
2021/06/14 02:29:45;;;;;;;;;;;27.60;99.90;;;;;;1908331;73;20221;-77
2021/06/14 02:32:19;;;;;;;;;;;27.60;99.90;;;;;;1906646;73;20212;-77
2021/06/14 02:34:49;;;;;;;;;;;27.60;99.90;;;;;;1908409;74;20198;-75
2021/06/14 02:37:21;;;;;;;;;;;27.60;99.90;;;;;;1906613;74;20151;-75
2021/06/14 02:39:52;;;;;;;;;;;27.60;99.90;;;;;;1916092;74;20277;-80
2021/06/14 02:42:22;;;;;;;;;;;27.70;99.90;;;;;;1905811;74;20171;-78
2021/06/14 02:44:53;;;;;;;;;;;27.80;99.60;;;;;;1906964;72;20155;-78
2021/06/14 02:47:23;;;;;;;;;;;27.80;99.80;;;;;;1892432;74;20234;-77
2021/06/14 02:49:53;;;;;;;;;;;27.80;99.90;;;;;;1895210;73;20216;-76
2021/06/14 02:52:23;;;;;;;;;;;27.80;99.50;;;;;;1892299;74;20267;-77
2021/06/14 02:54:54;;;;;;;;;;;27.80;99.70;;;;;;1908848;74;20120;-77
2021/06/14 02:57:24;;;;;;;;;;;27.90;99.40;;;;;;1902093;74;20136;-76
2021/06/14 02:59:54;;;;;;;;;;;27.90;99.20;;;;;;1908163;74;20226;-76
2021/06/14 03:02:26;;;;;;;;;;;28.00;99.30;;;;;;1911992;74;20153;-76
2021/06/14 03:04:56;;;;;;;;;;;28.00;99.10;;;;;;1875117;74;20510;-78
2021/06/14 03:07:28;;;;;;;;;;;28.00;99.10;;;;;;1911922;74;20236;-76
2021/06/14 03:09:58;;;;;;;;;;;28.10;99.20;;;;;;1909136;74;20198;-76
2021/06/14 03:12:28;;;;;;;;;;;28.10;98.10;;;;;;1900952;73;20170;-75
2021/06/14 03:14:58;;;;;;;;;;;28.20;97.60;;;;;;1908044;74;20268;-75
2021/06/14 03:17:30;;;;;;;;;;;28.20;97.10;;;;;;1903682;74;21063;-74
2021/06/14 03:20:01;;;;;;;;;;;28.30;95.80;;;;;;1908409;74;20232;-75
2021/06/14 03:22:30;;;;;;;;;;;28.40;94.60;;;;;;1913936;74;20224;-75
2021/06/14 03:25:00;;;;;;;;;;;28.40;94.70;;;;;;1901452;73;20216;-76
2021/06/14 03:27:32;;;;;;;;;;;28.50;94.50;;;;;;1872646;75;20160;-75
2021/06/14 03:30:02;;;;;;;;;;;28.60;94.80;;;;;;1875549;75;20203;-75
2021/06/14 03:32:33;;;;;;;;;;;28.70;94.90;;;;;;1877797;75;20777;-76
2021/06/14 03:35:03;;;;;;;;;;;28.80;94.90;;;;;;1875944;75;20231;-76
2021/06/14 03:37:34;;;;;;;;;;;28.90;94.40;;;;;;1885038;75;20296;-75
2021/06/14 03:40:04;;;;;;;;;;;28.90;94.20;;;;;;1883433;75;20199;-75
2021/06/14 03:42:37;;;;;;;;;;;29.00;94.30;;;;;;1881788;75;20152;-75
2021/06/14 03:45:07;;;;;;;;;;;29.00;94.10;;;;;;1878304;74;20199;-76
2021/06/14 03:47:38;;;;;;;;;;;29.00;94.20;;;;;;1880663;75;20171;-76
2021/06/14 03:50:15;;;;;;;;;;;29.10;92.70;;;;;;1884113;75;20179;-74
2021/06/14 03:52:46;;;;;;;;;;;29.10;93.50;;;;;;1880471;75;20165;-77
2021/06/14 03:55:16;;;;;;;;;;;29.10;93.00;;;;;;1849868;76;20517;-76
2021/06/14 03:57:46;;;;;;;;;;;29.20;93.00;;;;;;1850906;76;20450;-75
2021/06/14 04:00:16;;;;;;;;;;;29.20;93.00;;;;;;1836070;77;20545;-74
2021/06/14 04:02:46;;;;;;;;;;;29.30;93.20;;;;;;1848695;76;20222;-76
2021/06/14 04:05:18;;;;;;;;;;;29.40;92.90;;;;;;1852183;76;20218;-76
2021/06/14 04:07:48;;;;;;;;;;;29.50;93.00;;;;;;1819126;77;20201;-75
2021/06/14 04:10:17;;;;;;;;;;;29.70;92.90;;;;;;1819660;77;20119;-75
2021/06/14 04:12:50;;;;;;;;;;;29.90;91.30;;;;;;1829746;77;20313;-76
2021/06/14 04:15:20;;;;;;;;;;;29.90;91.60;;;;;;1830243;78;20215;-75
2021/06/14 04:17:49;;;;;;;;;;;29.90;91.10;;;;;;1832188;77;20218;-75
2021/06/14 04:20:19;;;;;;;;;;;30.00;91.50;;;;;;1823607;77;20223;-76
2021/06/14 04:22:51;;;;;;;;;;;30.00;91.50;;;;;;1829823;77;20184;-75
2021/06/14 04:25:20;;;;;;;;;;;30.00;91.10;;;;;;1835063;76;20594;-75
2021/06/14 04:27:50;;;;;;;;;;;30.10;91.00;;;;;;1845451;76;20195;-77
2021/06/14 04:30:29;;;;;;;;;;;30.10;91.00;;;;;;1786647;77;20192;-75
2021/06/14 04:33:00;;;;;;;;;;;30.10;90.90;;;;;;1847181;77;20203;-75
2021/06/14 04:35:30;;;;;;;;;;;30.10;90.80;;;;;;1854350;77;20204;-75
2021/06/14 04:41:45;;;;;;;;;;;30.10;90.70;;;;;;1841548;76;20162;-76
2021/06/14 04:44:16;;;;;;;;;;;30.00;90.90;;;;;;1854290;76;20215;-76
2021/06/14 04:46:43;;;;;;;;;;;30.10;91.40;;;;;;1854052;76;20181;-75
2021/06/14 04:49:12;;;;;;;;;;;30.20;91.40;;;;;;1855948;76;20227;-75
2021/06/14 04:51:42;;;;;;;;;;;30.20;91.10;;;;;;1858034;76;20170;-74
2021/06/14 04:54:12;;;;;;;;;;;30.20;91.00;;;;;;1859527;76;20187;-76
2021/06/14 04:56:44;;;;;;;;;;;30.10;91.40;;;;;;1849676;76;20234;-75
2021/06/14 04:59:14;;;;;;;;;;;30.20;91.50;;;;;;1855681;75;20454;-76
2021/06/14 05:01:45;;;;;;;;;;;30.30;91.10;;;;;;1859308;76;20250;-77
2021/06/14 05:04:15;;;;;;;;;;;30.40;90.30;;;;;;1846604;76;20224;-77
2021/06/14 05:06:45;;;;;;;;;;;30.40;90.40;;;;;;1847199;76;20208;-78
2021/06/14 05:09:17;;;;;;;;;;;30.40;90.10;;;;;;1828024;76;20249;-79
2021/06/14 05:11:47;;;;;;;;;;;30.40;90.40;;;;;;1856378;76;20129;-78
2021/06/14 05:14:17;;;;;;;;;;;30.40;91.00;;;;;;1862203;76;20121;-79
2021/06/14 05:16:47;;;;;;;;;;;30.40;90.50;;;;;;1850790;76;20209;-77
2021/06/14 05:19:16;;;;;;;;;;;30.50;90.40;;;;;;1848470;76;20137;-76
2021/06/14 05:21:46;;;;;;;;;;;30.50;90.00;;;;;;1840442;76;20511;-77
2021/06/14 05:24:16;;;;;;;;;;;30.60;89.10;;;;;;1852668;76;20210;-77
2021/06/14 05:26:46;;;;;;;;;;;30.60;88.80;;;;;;1857391;76;20176;-76
2021/06/14 05:29:16;;;;;;;;;;;30.50;89.20;;;;;;1862668;76;20211;-77
2021/06/14 05:31:46;;;;;;;;;;;30.50;90.00;;;;;;1870018;76;20473;-78
2021/06/14 05:34:16;;;;;;;;;;;30.40;90.20;;;;;;1866456;76;20154;-77
2021/06/14 05:36:45;;;;;;;;;;;30.30;90.70;;;;;;1868904;75;20204;-77
2021/06/14 05:39:15;;;;;;;;;;;30.40;90.80;;;;;;1851782;76;20321;-78
2021/06/14 05:41:48;;;;;;;;;;;30.30;90.10;;;;;;1892791;75;20202;-76
2021/06/14 05:44:21;;;;;;;;;;;30.40;89.50;;;;;;1904372;74;20198;-77
2021/06/14 05:46:51;;;;;;;;;;;30.50;88.80;;;;;;1905880;74;20171;-75
2021/06/14 05:49:41;;;;;;;;;;;30.50;88.00;;;;;;1897568;74;20194;-77
2021/06/14 05:52:15;;;;;;;;;;;30.60;88.10;;;;;;1907363;73;20297;-76
2021/06/14 05:54:45;;;;;;;;;;;30.70;87.00;;;;;;1910176;74;20236;-74
2021/06/14 05:57:16;;;;;;;;;;;30.80;86.70;;;;;;1842741;77;20238;-76
2021/06/14 05:59:54;;;;;;;;;;;30.90;85.60;;;;;;1863251;75;20213;-76
2021/06/14 06:02:21;;;;;;;;;;;30.90;85.80;;;;;;1865947;75;20227;-77
2021/06/14 06:04:51;;;;;;;;;;;30.90;86.70;;;;;;1834949;77;20203;-75
2021/06/14 06:07:20;;;;;;;;;;;30.90;83.60;;;;;;1878161;75;20237;-75
2021/06/14 06:09:52;;;;;;;;;;;30.90;84.40;;;;;;1862515;75;20207;-77
2021/06/14 06:12:21;;;;;;;;;;;30.90;86.40;;;;;;1859116;77;20492;-76
2021/06/14 06:14:54;;;;;;;;;;;30.90;85.40;;;;;;1873769;75;20513;-75
2021/06/14 06:17:24;;;;;;;;;;;31.00;84.60;;;;;;1864640;75;20263;-76
2021/06/14 06:19:54;;;;;;;;;;;31.00;85.20;;;;;;1861118;77;20196;-76
2021/06/14 06:22:23;;;;;;;;;;;30.90;85.50;;;;;;1860671;76;20530;-76
2021/06/14 06:24:53;;;;;;;;;;;30.90;85.50;;;;;;1870799;75;20615;-76
2021/06/14 06:27:23;;;;;;;;;;;30.80;85.40;;;;;;1857144;73;20201;-76
2021/06/14 06:29:52;;;;;;;;;;;30.80;86.10;;;;;;1859670;76;20151;-76
2021/06/14 06:32:22;;;;;;;;;;;30.80;86.10;;;;;;1854927;76;20197;-76
2021/06/14 06:34:53;;;;;;;;;;;30.80;85.00;;;;;;1842091;76;20260;-77
2021/06/14 06:37:23;;;;;;;;;;;30.80;85.20;;;;;;1848373;76;20221;-78
2021/06/14 06:39:53;;;;;;;;;;;30.80;84.80;;;;;;1869180;76;20153;-83
2021/06/14 06:42:25;;;;;;;;;;;30.90;84.70;;;;;;1862459;75;20206;-88
2021/06/14 06:44:57;;;;;;;;;;;30.90;84.80;;;;;;1851292;77;20644;-88
2021/06/14 06:47:36;;;;;;;;;;;31.00;83.30;;;;;;1870711;76;20214;-88
2021/06/14 06:50:07;;;;;;;;;;;31.10;80.70;;;;;;1854598;76;20127;-90
2021/06/14 06:52:39;;;;;;;;;;;31.10;82.20;;;;;;1859553;77;20213;-88
2021/06/14 06:55:11;;;;;;;;;;;31.10;81.50;;;;;;1862149;77;20176;-88
2021/06/14 06:57:41;;;;;;;;;;;31.10;81.80;;;;;;1857456;75;20172;-89
2021/06/14 07:00:12;;;;;;;;;;;31.10;81.60;;;;;;1854862;77;20171;-90
2021/06/14 07:02:42;;;;;;;;;;;31.20;81.70;;;;;;1861495;77;20161;-89
2021/06/14 07:05:13;;;;;;;;;;;31.20;81.30;;;;;;1850977;77;20221;-89
2021/06/14 07:07:44;;;;;;;;;;;31.20;82.30;;;;;;1850937;77;20160;-88
2021/06/14 07:10:14;;;;;;;;;;;31.30;81.10;;;;;;1847993;77;20223;-88
2021/06/14 07:12:48;;;;;;;;;;;31.40;81.20;;;;;;1857195;76;20184;-89
2021/06/14 07:15:18;;;;;;;;;;;31.40;80.60;;;;;;1863848;77;20184;-89
2021/06/14 07:17:47;;;;;;;;;;;31.50;80.50;;;;;;1832149;77;20123;-89
2021/06/14 07:20:17;;;;;;;;;;;31.50;79.30;;;;;;1847530;76;20186;-89
2021/06/14 07:23:05;;;;;;;;;;;31.50;80.10;;;;;;1827839;78;20206;-90
2021/06/14 07:25:36;;;;;;;;;;;31.50;80.20;;;;;;1849749;77;20127;-90
2021/06/14 07:28:07;;;;;;;;;;;31.50;80.60;;;;;;1853278;76;20189;-90
2021/06/14 07:30:38;;;;;;;;;;;31.50;80.90;;;;;;1854321;76;20230;-91
2021/06/14 07:33:09;;;;;;;;;;;31.30;80.10;;;;;;1860444;77;20173;-89
2021/06/14 07:35:39;;;;;;;;;;;31.20;81.10;;;;;;1866516;76;20429;-92
2021/06/14 07:38:15;;;;;;;;;;;31.10;81.70;;;;;;1893236;76;20179;-90
2021/06/14 07:40:45;;;;;;;;;;;31.10;81.60;;;;;;1864754;76;20275;-88
2021/06/14 07:43:15;;;;;;;;;;;31.10;81.00;;;;;;1859913;77;20174;-88
2021/06/14 07:45:46;;;;;;;;;;;31.10;81.30;;;;;;1872689;76;20201;-90
2021/06/14 07:48:18;;;;;;;;;;;31.20;80.00;;;;;;1885628;75;20175;-89
2021/06/14 07:50:49;;;;;;;;;;;31.20;79.90;;;;;;1885118;76;20179;-90
2021/06/14 07:53:19;;;;;;;;;;;31.20;80.60;;;;;;1881501;76;20190;-88
2021/06/14 07:55:52;;;;;;;;;;;31.10;81.30;;;;;;1868637;76;20169;-90
2021/06/14 07:58:24;;;;;;;;;;;31.10;81.70;;;;;;1878889;76;20448;-91
2021/06/14 08:00:54;;;;;;;;;;;31.10;82.70;;;;;;1878347;76;20138;-88
2021/06/14 08:03:24;;;;;;;;;;;31.00;82.10;;;;;;1875347;76;20191;-89
2021/06/14 08:05:54;;;;;;;;;;;31.10;81.30;;;;;;1882181;76;20146;-90
2021/06/14 08:08:23;;;;;;;;;;;31.10;80.70;;;;;;1870024;76;20217;-89
2021/06/14 08:10:54;;;;;;;;;;;31.10;81.00;;;;;;1877664;76;20277;-89
2021/06/14 08:13:24;;;;;;;;;;;31.20;80.20;;;;;;1878035;76;20187;-90
2021/06/14 08:15:55;;;;;;;;;;;31.30;81.10;;;;;;1879252;75;20174;-90
2021/06/14 08:25:59;;;;;;;;;;;31.50;78.00;;;;;;1835363;77;20218;-90
2021/06/14 08:28:29;;;;;;;;;;;31.50;79.00;;;;;;1851573;75;20159;-91
2021/06/14 08:31:02;;;;;;;;;;;31.50;77.50;;;;;;1836029;76;20691;-86
2021/06/14 08:33:31;;;;;;;;;;;31.60;78.80;;;;;;1849361;76;20208;-81
2021/06/14 08:36:00;;;;;;;;;;;31.60;79.50;;;;;;1825064;77;20567;-84
2021/06/14 08:38:32;;;;;;;;;;;31.60;77.10;;;;;;1818932;78;20612;-80
2021/06/14 08:41:01;;;;;;;;;;;31.70;77.20;;;;;;1820825;78;20279;-82
2021/06/14 08:43:31;;;;;;;;;;;31.60;76.90;;;;;;1819611;77;20219;-82
2021/06/14 08:46:01;;;;;;;;;;;31.60;76.40;;;;;;1831071;77;20307;-79
2021/06/14 08:48:31;;;;;;;;;;;31.60;77.00;;;;;;1837916;77;20214;-78
2021/06/14 08:51:01;;;;;;;;;;;31.60;76.10;;;;;;1825811;78;20210;-79
2021/06/14 08:53:31;;;;;;;;;;;31.50;75.60;;;;;;1830581;78;20220;-77
2021/06/14 08:56:00;;;;;;;;;;;31.50;75.80;;;;;;1834464;77;20231;-77
2021/06/14 08:58:32;;;;;;;;;;;31.40;75.90;;;;;;1829934;77;20215;-79
2021/06/14 09:01:02;;;;;;;;;;;31.30;76.50;;;;;;1826809;77;20232;-78
2021/06/14 09:03:32;;;;;;;;;;;31.30;76.60;;;;;;1831960;77;20240;-78
2021/06/14 09:06:06;;;;;;;;;;;31.30;76.70;;;;;;1826069;78;20218;-79
2021/06/14 09:08:36;;;;;;;;;;;31.30;76.90;;;;;;1831297;77;20264;-78
2021/06/14 09:11:10;;;;;;;;;;;31.30;76.80;;;;;;1821535;78;20178;-78
2021/06/14 09:13:40;;;;;;;;;;;31.20;76.50;;;;;;1823870;78;20479;-77
2021/06/14 09:16:12;;;;;;;;;;;31.20;78.10;;;;;;1830647;78;20187;-78
2021/06/14 09:18:43;;;;;;;;;;;31.10;78.30;;;;;;1826162;77;20233;-79
2021/06/14 09:21:15;;;;;;;;;;;31.10;78.60;;;;;;1821429;77;20255;-79
2021/06/14 09:23:46;;;;;;;;;;;31.00;79.50;;;;;;1817094;78;20230;-80
2021/06/14 09:26:17;;;;;;;;;;;31.00;79.40;;;;;;1823124;78;20272;-78
2021/06/14 09:28:48;;;;;;;;;;;31.00;79.70;;;;;;1831691;76;20159;-80
2021/06/14 09:31:32;;;;;;;;;;;31.00;79.80;;;;;;1835602;78;20188;-80
2021/06/14 09:34:02;;;;;;;;;;;30.90;79.70;;;;;;1830740;77;20606;-80
2021/06/14 09:36:32;;;;;;;;;;;30.90;78.60;;;;;;1831296;77;20193;-80
2021/06/14 09:39:05;;;;;;;;;;;30.90;79.90;;;;;;1823363;78;20183;-81
2021/06/14 09:41:52;;;;;;;;;;;30.90;79.80;;;;;;1823436;77;20266;-81
2021/06/14 09:44:09;;;;;;;;;;;30.90;78.70;;;;;;1824089;76;20191;-80
2021/06/14 09:46:42;;;;;;;;;;;30.90;79.20;;;;;;1826090;77;20196;-80
2021/06/14 09:49:13;;;;;;;;;;;31.00;79.50;;;;;;1827100;78;20164;-79
2021/06/14 09:51:44;;;;;;;;;;;31.00;79.40;;;;;;1822241;77;20211;-80
2021/06/14 09:54:15;;;;;;;;;;;31.00;79.50;;;;;;1806938;78;20491;-80
2021/06/14 09:56:48;;;;;;;;;;;30.90;79.00;;;;;;1833876;77;20224;-80
2021/06/14 09:59:19;;;;;;;;;;;30.80;79.10;;;;;;1788776;79;20173;-81
2021/06/14 10:01:52;;;;;;;;;;;30.80;80.20;;;;;;1790301;78;20515;-80
2021/06/14 10:04:22;;;;;;;;;;;30.70;80.00;;;;;;1830949;77;20222;-79
2021/06/14 10:06:55;;;;;;;;;;;30.60;79.90;;;;;;1816091;77;20204;-79
2021/06/14 10:09:23;;;;;;;;;;;30.60;80.20;;;;;;1814749;77;20189;-79
2021/06/14 10:11:52;;;;;;;;;;;30.60;80.60;;;;;;1827740;77;20176;-79
2021/06/14 10:14:22;;;;;;;;;;;30.60;80.60;;;;;;1833085;78;20521;-79
2021/06/14 10:16:53;;;;;;;;;;;30.50;81.10;;;;;;1832744;75;20176;-79
2021/06/14 10:19:23;;;;;;;;;;;30.60;81.60;;;;;;1837113;78;20798;-80
2021/06/14 10:21:53;;;;;;;;;;;30.60;81.40;;;;;;1828220;78;20186;-80
2021/06/14 10:24:23;;;;;;;;;;;30.60;81.40;;;;;;1832618;78;20226;-83
2021/06/14 10:26:54;;;;;;;;;;;30.60;81.80;;;;;;1831041;77;20215;-83
2021/06/14 10:29:24;;;;;;;;;;;30.50;82.10;;;;;;1857720;76;20235;-83
2021/06/14 10:31:54;;;;;;;;;;;30.50;82.00;;;;;;1874151;76;20154;-83
2021/06/14 10:34:26;;;;;;;;;;;30.50;82.80;;;;;;1873695;75;20187;-84
2021/06/14 10:36:57;;;;;;;;;;;30.50;82.80;;;;;;1875243;76;20132;-80
2021/06/14 10:39:27;;;;;;;;;;;30.40;83.40;;;;;;1857532;76;20242;-80
2021/06/14 10:41:58;;;;;;;;;;;30.40;83.40;;;;;;1856741;76;20141;-81
2021/06/14 10:44:28;;;;;;;;;;;30.30;84.10;;;;;;1851659;75;20254;-80
2021/06/14 10:46:57;;;;;;;;;;;30.30;84.50;;;;;;1838003;76;20227;-80
2021/06/14 10:49:28;;;;;;;;;;;30.20;84.50;;;;;;1838107;76;20168;-80
2021/06/14 10:52:01;;;;;;;;;;;30.20;84.00;;;;;;1844990;75;20211;-80
2021/06/14 10:54:31;;;;;;;;;;;30.10;83.90;;;;;;1839302;75;20582;-81
2021/06/14 10:57:02;;;;;;;;;;;30.10;83.80;;;;;;1890795;74;20200;-80
2021/06/14 10:59:33;;;;;;;;;;;30.00;84.00;;;;;;1883381;74;20222;-80
2021/06/14 11:02:05;;;;;;;;;;;30.00;84.30;;;;;;1864956;75;20122;-80
2021/06/14 11:04:35;;;;;;;;;;;30.00;84.50;;;;;;1892383;74;20191;-80
2021/06/14 11:07:05;;;;;;;;;;;29.90;84.50;;;;;;1884695;74;20226;-80
2021/06/14 11:09:38;;;;;;;;;;;29.90;84.90;;;;;;1886574;74;20232;-79
2021/06/14 11:12:09;;;;;;;;;;;29.90;85.30;;;;;;1884361;74;20490;-80
2021/06/14 11:14:41;;;;;;;;;;;29.80;85.30;;;;;;1887271;74;20404;-81
2021/06/14 11:17:12;;;;;;;;;;;29.80;85.40;;;;;;1892292;74;20482;-80
2021/06/14 11:19:42;;;;;;;;;;;29.80;85.70;;;;;;1895134;74;20231;-81
2021/06/14 11:22:12;;;;;;;;;;;29.70;86.00;;;;;;1889942;74;20160;-81
2021/06/14 11:24:43;;;;;;;;;;;29.70;86.40;;;;;;1894935;74;20171;-81
2021/06/14 11:27:13;;;;;;;;;;;29.70;86.70;;;;;;1880274;74;20434;-82
2021/06/14 11:29:44;;;;;;;;;;;29.70;86.90;;;;;;1913465;73;20116;-81
2021/06/14 11:32:19;;;;;;;;;;;29.60;87.20;;;;;;1893059;74;20470;-81
2021/06/14 11:34:47;;;;;;;;;;;29.70;87.50;;;;;;1880667;75;20419;-82
2021/06/14 11:37:17;;;;;;;;;;;29.60;87.50;;;;;;1877332;74;20117;-81
2021/06/14 11:39:47;;;;;;;;;;;29.60;87.90;;;;;;1875496;75;20164;-81
2021/06/14 11:42:19;;;;;;;;;;;29.60;88.00;;;;;;1836527;76;20197;-81
2021/06/14 11:44:49;;;;;;;;;;;29.60;88.20;;;;;;1843175;76;20269;-82
2021/06/14 11:47:21;;;;;;;;;;;29.60;88.50;;;;;;1853414;75;20523;-82
2021/06/14 11:49:52;;;;;;;;;;;29.50;88.50;;;;;;1819673;76;20232;-83
2021/06/14 11:52:23;;;;;;;;;;;29.50;88.80;;;;;;1844700;76;20216;-82
2021/06/14 11:54:55;;;;;;;;;;;29.50;89.20;;;;;;1823643;77;20333;-82
2021/06/14 11:57:26;;;;;;;;;;;29.50;89.20;;;;;;1858048;76;20261;-82
2021/06/14 11:59:56;;;;;;;;;;;29.50;90.00;;;;;;1831045;76;20300;-82
2021/06/14 12:02:27;;;;;;;;;;;29.40;89.70;;;;;;1854052;75;20139;-82
2021/06/14 12:04:58;;;;;;;;;;;29.40;89.80;;;;;;1824819;76;20218;-84
2021/06/14 12:07:29;;;;;;;;;;;29.40;90.00;;;;;;1846151;76;20176;-82
2021/06/14 12:10:00;;;;;;;;;;;29.40;89.70;;;;;;1815955;76;20262;-82
2021/06/14 12:12:30;;;;;;;;;;;29.40;89.90;;;;;;1860675;76;20178;-82
2021/06/14 12:15:00;;;;;;;;;;;29.40;90.10;;;;;;1849217;76;20136;-82
2021/06/14 12:17:31;;;;;;;;;;;29.40;90.10;;;;;;1843919;76;20174;-83
2021/06/14 12:20:01;;;;;;;;;;;29.30;90.20;;;;;;1828063;76;20236;-82
2021/06/14 12:22:31;;;;;;;;;;;29.30;90.40;;;;;;1825124;77;20227;-83
2021/06/14 12:25:02;;;;;;;;;;;29.30;90.40;;;;;;1835149;78;20177;-83
2021/06/14 12:27:31;;;;;;;;;;;29.30;90.40;;;;;;1825490;76;20178;-83
2021/06/14 12:30:02;;;;;;;;;;;29.30;90.60;;;;;;1847893;75;20206;-83
2021/06/14 12:32:35;;;;;;;;;;;29.30;90.60;;;;;;1829149;76;20192;-81
2021/06/14 12:35:05;;;;;;;;;;;29.30;90.70;;;;;;1850244;76;20372;-82
2021/06/14 12:37:36;;;;;;;;;;;29.20;90.50;;;;;;1836564;76;20194;-81
2021/06/14 12:40:07;;;;;;;;;;;29.20;90.60;;;;;;1888716;75;20160;-81
2021/06/14 12:42:37;;;;;;;;;;;29.20;90.40;;;;;;1867776;74;20254;-82
2021/06/14 12:45:07;;;;;;;;;;;29.10;90.40;;;;;;1867865;75;20240;-83
2021/06/14 12:47:38;;;;;;;;;;;29.10;90.50;;;;;;1892187;75;20203;-83
2021/06/14 12:50:08;;;;;;;;;;;29.10;90.50;;;;;;1885863;74;20196;-82
2021/06/14 12:52:38;;;;;;;;;;;29.20;90.70;;;;;;1870968;75;20172;-82
2021/06/14 12:55:09;;;;;;;;;;;29.10;90.90;;;;;;1851841;76;20187;-82
2021/06/14 12:57:40;;;;;;;;;;;29.10;90.90;;;;;;1861283;74;20429;-81
2021/06/14 13:00:11;;;;;;;;;;;29.10;90.80;;;;;;1871897;74;20216;-82
2021/06/14 13:02:42;;;;;;;;;;;29.10;90.80;;;;;;1883424;75;20184;-83
2021/06/14 13:05:14;;;;;;;;;;;29.00;91.00;;;;;;1882980;75;20187;-84
2021/06/14 13:07:45;;;;;;;;;;;29.00;90.90;;;;;;1888021;73;20396;-83
2021/06/14 13:10:15;;;;;;;;;;;29.00;91.00;;;;;;1876562;75;20248;-84
2021/06/14 13:12:45;;;;;;;;;;;29.00;90.90;;;;;;1889056;74;20236;-82
2021/06/14 13:15:15;;;;;;;;;;;29.00;90.80;;;;;;1884754;75;20205;-83
2021/06/14 13:17:46;;;;;;;;;;;28.90;90.90;;;;;;1876628;75;20285;-84
2021/06/14 13:20:18;;;;;;;;;;;28.90;90.90;;;;;;1886644;75;20192;-81
2021/06/14 13:22:48;;;;;;;;;;;28.90;90.80;;;;;;1895160;74;20199;-82
2021/06/14 13:25:18;;;;;;;;;;;28.90;90.90;;;;;;1884268;74;20474;-89
2021/06/14 13:27:49;;;;;;;;;;;28.90;90.90;;;;;;1891466;75;20220;-90
2021/06/14 13:30:21;;;;;;;;;;;28.90;91.00;;;;;;1878005;74;20167;-90
2021/06/14 13:35:26;;;;;;;;;;;28.80;91.10;;;;;;1883733;74;20282;-90
2021/06/14 13:37:57;;;;;;;;;;;28.80;91.20;;;;;;1892090;74;20250;-92
2021/06/14 13:40:29;;;;;;;;;;;28.70;91.30;;;;;;1887877;74;20216;-90
2021/06/14 13:43:00;;;;;;;;;;;28.60;91.50;;;;;;1896391;73;20203;-90
2021/06/14 13:45:31;;;;;;;;;;;28.50;91.50;;;;;;1882681;74;20498;-90
2021/06/14 13:48:01;;;;;;;;;;;28.40;91.30;;;;;;1913278;74;20206;-90
2021/06/14 13:50:50;;;;;;;;;;;28.30;91.20;;;;;;1882588;74;20195;-90
2021/06/14 13:53:22;;;;;;;;;;;28.20;91.20;;;;;;1835004;76;20224;-91
2021/06/14 13:55:53;;;;;;;;;;;28.20;90.90;;;;;;1842222;77;20234;-91
2021/06/14 13:58:24;;;;;;;;;;;28.10;90.70;;;;;;1838315;76;20165;-90
2021/06/14 14:00:55;;;;;;;;;;;28.10;90.20;;;;;;1825456;77;20226;-91
2021/06/14 14:03:27;;;;;;;;;;;28.00;89.80;;;;;;1829886;76;20129;-91
2021/06/14 14:05:57;;;;;;;;;;;28.00;89.70;;;;;;1846963;76;20160;-89
2021/06/14 14:08:28;;;;;;;;;;;27.90;89.70;;;;;;1825991;76;20187;-90
2021/06/14 14:11:00;;;;;;;;;;;27.90;89.80;;;;;;1798376;76;20232;-90
2021/06/14 14:13:30;;;;;;;;;;;27.90;89.80;;;;;;1781613;79;20201;-88
2021/06/14 14:15:59;;;;;;;;;;;27.80;89.60;;;;;;1774177;79;20516;-90
2021/06/14 14:18:29;;;;;;;;;;;27.80;89.90;;;;;;1797567;77;20189;-90
2021/06/14 14:20:59;;;;;;;;;;;27.80;90.10;;;;;;1836202;77;20175;-89
2021/06/14 14:23:29;;;;;;;;;;;27.70;90.20;;;;;;1839417;77;20229;-90
2021/06/14 14:25:58;;;;;;;;;;;27.70;90.20;;;;;;1839055;77;20522;-89
2021/06/14 14:28:28;;;;;;;;;;;27.60;90.40;;;;;;1839738;77;20144;-89
2021/06/14 14:30:59;;;;;;;;;;;27.60;90.60;;;;;;1840720;77;20245;-91
2021/06/14 14:33:34;;;;;;;;;;;27.50;90.80;;;;;;1835703;77;20476;-90
2021/06/14 14:36:05;;;;;;;;;;;27.40;91.00;;;;;;1832786;77;20188;-91
2021/06/14 14:38:36;;;;;;;;;;;27.40;91.10;;;;;;1837951;77;20761;-90
2021/06/14 14:41:07;;;;;;;;;;;27.30;91.30;;;;;;1838388;77;20223;-90
2021/06/14 14:43:37;;;;;;;;;;;27.30;91.50;;;;;;1839945;77;20199;-90
2021/06/14 14:46:13;;;;;;;;;;;27.20;91.60;;;;;;1838304;77;20175;-89
2021/06/14 14:48:49;;;;;;;;;;;27.20;91.80;;;;;;1825451;77;20179;-90
2021/06/14 14:51:20;;;;;;;;;;;27.20;92.10;;;;;;1836492;77;20215;-89